Carpenter Bottom, North Carolina
Current Conditions -  °F | °C
As of 1:55 PM on Friday 21 Nov 2014 (Local Time) from KTNB Reporting Station
Clear Clear  
Wind Chill: 34°   Ceiling: Unl
Heat Index: 40°   Visibility: 10mi
Dew Point: -1°   Wind: 10mph
Humidity: 18%   Direction: 290°WNW
Pressure: 30.35"   Gusts: 18mph
Location:  36.0825°N, 81.9964°W
Report Text: KTNB 211855Z AUTO 29009G16KT 10SM CLR 05/M18 A3035 RMK AO2 T00451181
Loading
Personal Weather Stations






























Interactive Weather Map New forecast layout! Learn more

10-Day Weather Forecast

Advertisements
Track Severe Weather on mobile